createdAt,value
2022-07-30T00:00:32.113Z,88.80
2022-07-30T00:01:36.839Z,88.70
2022-07-30T00:02:38.669Z,88.60
2022-07-30T00:03:40.540Z,88.60
2022-07-30T00:04:43.330Z,88.60
2022-07-30T00:05:45.207Z,88.60
2022-07-30T00:06:47.068Z,88.60
2022-07-30T00:07:48.989Z,88.80
2022-07-30T00:08:50.805Z,88.80
2022-07-30T00:09:52.610Z,88.90
2022-07-30T00:10:54.466Z,89.10
2022-07-30T00:11:56.310Z,89.20
2022-07-30T00:12:59.886Z,89.20
2022-07-30T00:14:02.277Z,89.20
2022-07-30T00:15:04.334Z,89.20
2022-07-30T00:16:06.586Z,89.20
2022-07-30T00:17:08.555Z,89.00
2022-07-30T00:18:10.639Z,89.00
2022-07-30T00:19:13.983Z,89.00
2022-07-30T00:20:18.517Z,89.10
2022-07-30T00:21:35.914Z,89.20
2022-07-30T00:22:40.911Z,89.10
2022-07-30T00:23:42.806Z,89.00
2022-07-30T00:25:03.609Z,88.90
2022-07-30T00:26:05.396Z,88.70
2022-07-30T00:27:09.109Z,88.70
2022-07-30T00:28:10.938Z,88.70
2022-07-30T00:29:13.537Z,88.70
2022-07-30T00:30:15.837Z,88.70
2022-07-30T00:31:18.562Z,88.70
2022-07-30T00:32:20.399Z,88.70
2022-07-30T00:33:22.237Z,88.70
2022-07-30T00:34:24.097Z,88.70
2022-07-30T00:35:27.720Z,88.70
2022-07-30T00:36:29.637Z,88.70
2022-07-30T00:37:31.417Z,88.70
2022-07-30T00:38:33.263Z,88.70
2022-07-30T00:39:35.976Z,88.70
2022-07-30T00:40:37.848Z,88.70
2022-07-30T00:41:57.448Z,88.70
2022-07-30T00:42:59.267Z,88.70
2022-07-30T00:44:01.128Z,88.70
2022-07-30T00:45:03.669Z,88.80
2022-07-30T00:46:05.531Z,88.80
2022-07-30T00:47:07.428Z,88.90
2022-07-30T00:48:10.350Z,89.10
2022-07-30T00:49:12.447Z,89.20
2022-07-30T00:50:16.414Z,89.10
2022-07-30T00:51:18.363Z,89.10
2022-07-30T00:52:20.188Z,89.10
2022-07-30T00:53:22.207Z,89.30
2022-07-30T00:54:24.326Z,89.40
2022-07-30T00:55:26.581Z,89.40
2022-07-30T00:56:28.389Z,89.60
2022-07-30T00:57:30.249Z,89.90
2022-07-30T00:58:32.312Z,90.00
2022-07-30T00:59:34.554Z,89.90
2022-07-30T01:00:36.439Z,89.90
2022-07-30T01:01:38.393Z,89.90
2022-07-30T01:02:40.559Z,89.90
2022-07-30T01:03:42.513Z,89.90
2022-07-30T01:04:44.917Z,89.90
2022-07-30T01:05:46.766Z,90.00
2022-07-30T01:06:49.141Z,89.90
2022-07-30T01:07:51.586Z,89.90
2022-07-30T01:08:54.395Z,89.80
2022-07-30T01:09:56.561Z,89.80
2022-07-30T01:10:58.440Z,89.70
2022-07-30T01:12:00.389Z,89.60
2022-07-30T01:13:03.797Z,89.50
2022-07-30T01:14:07.666Z,89.50
2022-07-30T01:15:11.399Z,89.50
2022-07-30T01:16:14.689Z,89.50
2022-07-30T01:17:16.656Z,89.40
2022-07-30T01:18:18.964Z,89.30
2022-07-30T01:19:45.561Z,89.40
2022-07-30T01:21:01.663Z,89.40
2022-07-30T01:22:26.510Z,89.20
2022-07-30T01:23:38.239Z,89.00
2022-07-30T01:25:11.931Z,89.20
2022-07-30T01:26:19.009Z,89.00
2022-07-30T01:27:22.144Z,89.30
2022-07-30T01:28:28.634Z,89.40
2022-07-30T01:29:32.708Z,89.50
2022-07-30T01:30:38.619Z,89.50
2022-07-30T01:31:43.242Z,89.60
2022-07-30T01:32:46.772Z,89.60
2022-07-30T01:33:50.335Z,89.50
2022-07-30T01:34:55.079Z,89.50
2022-07-30T01:35:59.177Z,89.30
2022-07-30T01:37:02.760Z,89.30
2022-07-30T01:38:06.622Z,89.30
2022-07-30T01:39:09.657Z,89.40
2022-07-30T01:40:12.759Z,89.30
2022-07-30T01:41:17.070Z,89.50
2022-07-30T01:42:20.431Z,89.80
2022-07-30T01:43:24.739Z,90.00
2022-07-30T01:44:28.560Z,90.10
2022-07-30T01:45:37.663Z,90.10
2022-07-30T01:46:48.103Z,90.10
2022-07-30T01:47:53.316Z,90.20
2022-07-30T01:48:57.622Z,90.20
2022-07-30T01:50:01.886Z,90.20
2022-07-30T01:51:05.933Z,90.10
2022-07-30T01:52:10.160Z,90.10
2022-07-30T01:53:17.957Z,90.00
2022-07-30T01:54:21.772Z,90.00
2022-07-30T01:55:34.705Z,90.00
2022-07-30T01:56:38.417Z,90.00
2022-07-30T01:57:41.627Z,90.00
2022-07-30T01:58:44.925Z,90.00
2022-07-30T02:00:07.329Z,90.00
2022-07-30T02:01:24.621Z,89.90
2022-07-30T02:02:31.565Z,90.00
2022-07-30T02:03:35.280Z,90.00
2022-07-30T02:04:37.503Z,90.00
2022-07-30T02:05:42.953Z,90.00
2022-07-30T02:06:52.218Z,90.00
2022-07-30T02:08:05.538Z,89.90
2022-07-30T02:09:11.062Z,89.90
2022-07-30T02:10:19.182Z,90.00
2022-07-30T02:11:41.609Z,90.00
2022-07-30T02:12:51.911Z,90.00
2022-07-30T02:13:58.025Z,90.00
2022-07-30T02:15:16.113Z,90.00
2022-07-30T02:16:24.165Z,90.00
2022-07-30T02:17:34.728Z,90.00
2022-07-30T02:19:01.032Z,90.00
2022-07-30T02:20:10.087Z,90.00
2022-07-30T02:21:13.294Z,90.10
2022-07-30T02:22:18.932Z,90.10
2022-07-30T02:23:23.464Z,90.10
2022-07-30T02:24:31.338Z,90.20
2022-07-30T02:25:35.849Z,90.20
2022-07-30T02:26:40.706Z,90.20
2022-07-30T02:27:46.532Z,90.10
2022-07-30T02:28:52.736Z,90.20
2022-07-30T02:29:57.967Z,90.10
2022-07-30T02:31:01.614Z,90.10
2022-07-30T02:32:09.681Z,90.20
2022-07-30T02:33:15.533Z,90.10
2022-07-30T02:34:21.499Z,90.20
2022-07-30T02:35:26.673Z,90.20
2022-07-30T02:36:29.797Z,90.20
2022-07-30T02:37:41.726Z,90.20
2022-07-30T02:38:47.329Z,90.20
2022-07-30T02:39:51.951Z,90.20
2022-07-30T02:40:58.307Z,90.30
2022-07-30T02:42:02.457Z,90.30
2022-07-30T02:43:05.226Z,90.30
2022-07-30T02:44:08.370Z,90.20
2022-07-30T02:45:11.958Z,90.20
2022-07-30T02:46:18.288Z,90.20
2022-07-30T02:47:41.156Z,90.20
2022-07-30T02:48:43.964Z,90.20
2022-07-30T02:49:48.647Z,90.20
2022-07-30T02:50:53.720Z,90.30
2022-07-30T02:51:56.503Z,90.30
2022-07-30T02:52:59.913Z,90.40
2022-07-30T02:54:04.002Z,90.40
2022-07-30T02:55:07.308Z,90.50
2022-07-30T02:56:10.881Z,90.40
2022-07-30T02:57:14.437Z,90.40
2022-07-30T02:58:20.666Z,90.40
2022-07-30T02:59:23.887Z,90.40
2022-07-30T03:00:27.223Z,90.50
2022-07-30T03:01:31.260Z,90.40
2022-07-30T03:02:34.690Z,90.40
2022-07-30T03:03:42.796Z,90.40
2022-07-30T03:04:45.359Z,90.40
2022-07-30T03:05:52.664Z,90.30
2022-07-30T03:06:55.912Z,90.30
2022-07-30T03:07:59.820Z,90.30
2022-07-30T03:09:03.847Z,90.30
2022-07-30T03:10:07.561Z,90.30
2022-07-30T03:11:11.569Z,90.30
2022-07-30T03:12:16.613Z,90.30
2022-07-30T03:13:20.487Z,90.30
2022-07-30T03:14:22.562Z,90.30
2022-07-30T03:15:28.771Z,90.20
2022-07-30T03:16:34.318Z,90.20
2022-07-30T03:17:43.041Z,90.30
2022-07-30T03:18:46.737Z,90.30
2022-07-30T03:19:50.466Z,90.40
2022-07-30T03:20:56.386Z,90.80
2022-07-30T03:22:00.585Z,90.30
2022-07-30T03:23:04.217Z,90.30
2022-07-30T03:24:07.365Z,90.20
2022-07-30T03:25:10.710Z,90.30
2022-07-30T03:26:14.838Z,90.20
2022-07-30T03:27:18.979Z,90.30
2022-07-30T03:28:22.571Z,90.30
2022-07-30T03:29:27.167Z,90.30
2022-07-30T03:30:29.774Z,90.30
2022-07-30T03:31:37.777Z,90.30
2022-07-30T03:32:41.414Z,90.30
2022-07-30T03:33:45.511Z,90.30
2022-07-30T03:34:51.109Z,90.30
2022-07-30T03:35:53.433Z,90.40
2022-07-30T03:36:56.514Z,90.30
2022-07-30T03:37:59.901Z,90.40
2022-07-30T03:39:03.663Z,90.40
2022-07-30T03:40:06.880Z,90.40
2022-07-30T03:41:10.391Z,90.40
2022-07-30T03:42:12.733Z,90.40
2022-07-30T03:43:32.570Z,90.40
2022-07-30T03:44:36.062Z,90.80
2022-07-30T03:45:41.708Z,90.40
2022-07-30T03:46:45.619Z,90.50
2022-07-30T03:47:48.423Z,90.50
2022-07-30T03:48:52.423Z,90.40
2022-07-30T03:49:54.831Z,90.40
2022-07-30T03:50:57.774Z,90.40
2022-07-30T03:52:02.490Z,90.40
2022-07-30T03:53:06.136Z,90.40
2022-07-30T03:54:14.000Z,90.40
2022-07-30T03:55:16.763Z,90.40
2022-07-30T03:56:24.716Z,90.40
2022-07-30T03:57:45.222Z,90.30
2022-07-30T03:58:47.429Z,90.30
2022-07-30T03:59:51.660Z,90.30
2022-07-30T04:00:55.229Z,90.40
2022-07-30T04:02:05.941Z,90.30
2022-07-30T04:03:32.013Z,90.30
2022-07-30T04:04:44.859Z,90.30
2022-07-30T04:05:46.695Z,90.30
2022-07-30T04:06:48.504Z,90.40
2022-07-30T04:07:50.336Z,90.40
2022-07-30T04:08:55.077Z,90.30
2022-07-30T04:09:56.914Z,90.30
2022-07-30T04:11:19.594Z,90.40
2022-07-30T04:12:43.342Z,90.50
2022-07-30T04:13:46.013Z,90.60
2022-07-30T04:14:48.672Z,90.70
2022-07-30T04:16:41.037Z,90.70
2022-07-30T04:17:41.997Z,90.70
2022-07-30T04:18:47.803Z,90.70
2022-07-30T04:19:56.329Z,90.80
2022-07-30T04:21:00.830Z,90.80
2022-07-30T04:22:04.778Z,90.80
2022-07-30T04:23:10.624Z,90.80
2022-07-30T04:24:13.905Z,90.80
2022-07-30T04:25:24.246Z,90.80
2022-07-30T04:26:26.751Z,91.30
2022-07-30T04:27:30.524Z,90.90
2022-07-30T04:28:32.914Z,90.90
2022-07-30T04:29:35.405Z,90.80
2022-07-30T04:30:37.598Z,90.90
2022-07-30T04:31:40.980Z,90.90
2022-07-30T04:33:08.973Z,90.80
2022-07-30T04:34:52.673Z,90.70
2022-07-30T04:36:16.212Z,90.60
2022-07-30T04:37:20.679Z,90.60
2022-07-30T04:38:23.536Z,90.70
2022-07-30T04:39:27.018Z,90.70
2022-07-30T04:40:31.227Z,90.70
2022-07-30T04:41:33.543Z,90.70
2022-07-30T04:43:11.312Z,90.70
2022-07-30T04:44:14.565Z,90.80
2022-07-30T04:45:26.930Z,90.80
2022-07-30T04:46:32.194Z,90.80
2022-07-30T04:47:34.159Z,90.80
2022-07-30T04:48:54.817Z,90.90
2022-07-30T04:49:57.463Z,90.90
2022-07-30T04:51:01.972Z,91.00
2022-07-30T04:52:06.734Z,91.00
2022-07-30T04:53:09.675Z,91.00
2022-07-30T04:54:16.394Z,91.10
2022-07-30T04:55:20.882Z,91.10
2022-07-30T04:56:24.225Z,91.10
2022-07-30T04:57:28.502Z,91.10
2022-07-30T04:58:33.788Z,91.00
2022-07-30T04:59:37.291Z,91.00
2022-07-30T05:00:41.828Z,91.00
2022-07-30T05:01:51.227Z,91.10
2022-07-30T05:02:55.051Z,91.00
2022-07-30T05:04:00.449Z,91.00
2022-07-30T05:05:03.632Z,91.00
2022-07-30T05:06:06.780Z,91.00
2022-07-30T05:07:14.578Z,91.10
2022-07-30T05:08:16.790Z,91.10
2022-07-30T05:09:20.512Z,91.10
2022-07-30T05:10:22.642Z,91.10
2022-07-30T05:11:24.668Z,91.20
2022-07-30T05:12:40.620Z,91.20
2022-07-30T05:13:48.516Z,91.20
2022-07-30T05:14:54.069Z,91.30
2022-07-30T05:15:56.072Z,91.30
2022-07-30T05:17:00.853Z,91.30
2022-07-30T05:18:03.961Z,91.30
2022-07-30T05:19:09.543Z,91.30
2022-07-30T05:20:12.402Z,91.40
2022-07-30T05:21:34.483Z,91.40
2022-07-30T05:22:36.304Z,91.30
2022-07-30T05:23:38.171Z,91.40
2022-07-30T05:24:53.995Z,91.40
2022-07-30T05:25:55.994Z,91.40
2022-07-30T05:27:09.225Z,91.40
2022-07-30T05:28:11.032Z,91.40
2022-07-30T05:29:19.453Z,91.50
2022-07-30T05:30:29.466Z,91.50
2022-07-30T05:31:34.527Z,91.50
2022-07-30T05:32:38.216Z,91.50
2022-07-30T05:33:42.834Z,91.60
2022-07-30T05:34:50.626Z,91.70
2022-07-30T05:35:54.280Z,92.20
2022-07-30T05:36:56.236Z,91.80
2022-07-30T05:38:01.005Z,91.80
2022-07-30T05:39:07.497Z,91.90
2022-07-30T05:40:27.306Z,91.80
2022-07-30T05:41:55.153Z,91.80
2022-07-30T05:43:15.992Z,91.80
2022-07-30T05:44:22.008Z,91.80
2022-07-30T05:45:25.509Z,91.90
2022-07-30T05:46:27.987Z,92.00
2022-07-30T05:47:29.998Z,92.10
2022-07-30T05:48:35.196Z,92.10
2022-07-30T05:49:37.064Z,92.20
2022-07-30T05:50:43.043Z,92.20
2022-07-30T05:51:45.534Z,92.30
2022-07-30T05:52:47.528Z,92.40
2022-07-30T05:54:09.427Z,92.50
2022-07-30T05:55:30.041Z,92.60
2022-07-30T05:56:44.831Z,92.70
2022-07-30T05:57:49.737Z,92.80
2022-07-30T05:58:52.533Z,93.00
2022-07-30T06:00:06.411Z,93.10
2022-07-30T06:01:24.046Z,93.20
2022-07-30T06:02:26.280Z,93.20
2022-07-30T06:03:28.071Z,93.30
2022-07-30T06:05:02.842Z,93.30
2022-07-30T06:06:07.992Z,93.30
2022-07-30T06:07:09.912Z,93.50
2022-07-30T06:08:12.104Z,93.50
2022-07-30T06:09:14.155Z,93.60
2022-07-30T06:10:16.589Z,93.60
2022-07-30T06:11:18.572Z,93.70
2022-07-30T06:12:21.568Z,93.70
2022-07-30T06:13:23.915Z,93.80
2022-07-30T06:14:25.879Z,93.80
2022-07-30T06:15:28.384Z,93.80
2022-07-30T06:16:30.988Z,93.80
2022-07-30T06:18:37.618Z,94.40
2022-07-30T06:19:33.528Z,94.30
2022-07-30T06:20:35.587Z,93.80
2022-07-30T06:22:05.570Z,93.80
2022-07-30T06:23:10.388Z,93.80
2022-07-30T06:24:24.505Z,93.80
2022-07-30T06:25:40.536Z,93.80
2022-07-30T06:26:42.421Z,93.80
2022-07-30T06:27:44.488Z,93.70
2022-07-30T06:28:46.516Z,93.70
2022-07-30T06:30:09.416Z,93.70
2022-07-30T06:31:11.281Z,93.70
2022-07-30T06:32:13.308Z,93.80
2022-07-30T06:33:16.677Z,93.80
2022-07-30T06:34:18.744Z,93.90
2022-07-30T06:35:20.701Z,93.90
2022-07-30T06:36:23.207Z,93.80
2022-07-30T06:38:04.913Z,93.80
2022-07-30T06:39:00.814Z,93.70
2022-07-30T06:40:16.253Z,93.60
2022-07-30T06:41:34.509Z,93.50
2022-07-30T06:42:43.697Z,93.50
2022-07-30T06:44:07.627Z,93.20
2022-07-30T06:45:28.386Z,93.10
2022-07-30T06:46:52.949Z,93.00
2022-07-30T06:47:59.132Z,93.00
2022-07-30T06:49:02.206Z,92.70
2022-07-30T06:50:04.981Z,92.70
2022-07-30T06:51:06.988Z,92.20
2022-07-30T06:52:09.646Z,92.20
2022-07-30T06:53:11.657Z,92.10
2022-07-30T06:54:36.255Z,92.20
2022-07-30T06:56:00.379Z,92.00
2022-07-30T06:57:08.784Z,91.90
2022-07-30T06:58:11.092Z,91.50
2022-07-30T06:59:32.949Z,91.40
2022-07-30T07:01:02.368Z,91.10
2022-07-30T07:02:05.895Z,91.10
2022-07-30T07:03:16.495Z,91.00
2022-07-30T07:04:18.370Z,90.80
2022-07-30T07:05:22.429Z,90.80
2022-07-30T07:06:25.569Z,90.50
2022-07-30T07:07:41.260Z,90.50
2022-07-30T07:08:46.348Z,90.30
2022-07-30T07:09:51.616Z,90.20
2022-07-30T07:11:11.890Z,90.10
2022-07-30T07:12:20.140Z,90.00
2022-07-30T07:13:22.602Z,90.00
2022-07-30T07:14:24.713Z,89.90
2022-07-30T07:15:37.010Z,88.50
2022-07-30T07:16:42.757Z,87.70
2022-07-30T07:18:17.041Z,87.90
2022-07-30T07:20:01.610Z,87.20
2022-07-30T07:20:55.206Z,86.90
2022-07-30T07:21:58.545Z,86.90
2022-07-30T07:23:03.170Z,87.10
2022-07-30T07:24:09.117Z,86.40
2022-07-30T07:25:28.477Z,86.10
2022-07-30T07:26:31.786Z,85.90
2022-07-30T07:27:33.804Z,86.00
2022-07-30T07:28:40.139Z,86.00
2022-07-30T07:29:42.810Z,85.20
2022-07-30T07:31:05.712Z,84.80
2022-07-30T07:32:08.192Z,84.90
2022-07-30T07:33:12.705Z,85.00
2022-07-30T07:34:18.803Z,85.00
2022-07-30T07:35:23.170Z,84.90
2022-07-30T07:36:25.912Z,83.60
2022-07-30T07:37:28.125Z,83.50
2022-07-30T07:38:30.813Z,83.50
2022-07-30T07:39:33.559Z,82.70
2022-07-30T07:40:35.873Z,82.60
2022-07-30T07:41:48.913Z,82.30
2022-07-30T07:42:53.739Z,82.20
2022-07-30T07:43:55.659Z,82.50
2022-07-30T07:45:10.425Z,82.40
2022-07-30T07:46:35.312Z,82.60
2022-07-30T07:47:51.933Z,82.90
2022-07-30T07:49:10.728Z,83.00
2022-07-30T07:50:19.954Z,82.20
2022-07-30T07:51:47.803Z,81.90
2022-07-30T07:52:47.661Z,82.30
2022-07-30T07:54:18.617Z,82.20
2022-07-30T07:55:11.552Z,82.20
2022-07-30T07:56:16.155Z,81.80
2022-07-30T07:57:18.173Z,82.00
2022-07-30T07:58:26.101Z,82.20
2022-07-30T07:59:36.283Z,82.30
2022-07-30T08:00:44.736Z,82.10
2022-07-30T08:01:47.345Z,82.50
2022-07-30T08:03:10.480Z,81.80
2022-07-30T08:04:12.804Z,81.80
2022-07-30T08:05:56.939Z,81.60
2022-07-30T08:07:14.324Z,80.70
2022-07-30T08:08:50.932Z,80.50
2022-07-30T08:10:13.860Z,80.80
2022-07-30T08:11:24.515Z,80.50
2022-07-30T08:12:46.584Z,81.50
2022-07-30T08:14:06.947Z,80.20
2022-07-30T08:15:35.070Z,79.70
2022-07-30T08:16:50.125Z,79.50
2022-07-30T08:17:57.463Z,78.00
2022-07-30T08:19:12.121Z,77.80
2022-07-30T08:20:17.468Z,77.00
2022-07-30T08:21:19.284Z,76.30
2022-07-30T08:22:21.135Z,76.50
2022-07-30T08:23:24.501Z,76.70
2022-07-30T08:24:26.916Z,76.30
2022-07-30T08:25:29.041Z,76.10
2022-07-30T08:26:31.626Z,76.00
2022-07-30T08:27:34.035Z,75.50
2022-07-30T08:28:36.942Z,75.70
2022-07-30T08:29:41.838Z,74.80
2022-07-30T08:30:44.368Z,74.80
2022-07-30T08:31:46.518Z,74.40
2022-07-30T08:32:48.725Z,74.30
2022-07-30T08:33:51.020Z,74.70
2022-07-30T08:34:53.078Z,74.80
2022-07-30T08:36:09.764Z,74.30
2022-07-30T08:37:16.009Z,73.50
2022-07-30T08:38:18.209Z,73.90
2022-07-30T08:39:20.601Z,72.90
